sensor_id;sensor_type;location;lat;lon;timestamp;P1;durP1;ratioP1;P2;durP2;ratioP2
21394;SDS011;10858;42.714;23.180;2022-10-16T00:01:25;1.02;;;1.02;;
21394;SDS011;10858;42.714;23.180;2022-10-16T00:03:53;0.90;;;0.90;;
21394;SDS011;10858;42.714;23.180;2022-10-16T00:06:21;1.60;;;1.45;;
21394;SDS011;10858;42.714;23.180;2022-10-16T00:08:48;2.83;;;2.42;;
21394;SDS011;10858;42.714;23.180;2022-10-16T00:11:18;8.30;;;3.20;;
21394;SDS011;10858;42.714;23.180;2022-10-16T00:13:56;2.17;;;2.05;;
21394;SDS011;10858;42.714;23.180;2022-10-16T00:16:24;4.13;;;3.83;;
21394;SDS011;10858;42.714;23.180;2022-10-16T00:18:51;6.28;;;5.57;;
21394;SDS011;10858;42.714;23.180;2022-10-16T00:21:21;4.82;;;4.45;;
21394;SDS011;10858;42.714;23.180;2022-10-16T00:23:50;3.35;;;3.10;;
21394;SDS011;10858;42.714;23.180;2022-10-16T00:26:18;3.28;;;1.70;;
21394;SDS011;10858;42.714;23.180;2022-10-16T00:28:45;1.95;;;1.85;;
21394;SDS011;10858;42.714;23.180;2022-10-16T00:31:12;3.10;;;2.90;;
21394;SDS011;10858;42.714;23.180;2022-10-16T00:33:40;1.65;;;1.63;;
21394;SDS011;10858;42.714;23.180;2022-10-16T00:36:07;2.92;;;2.72;;
21394;SDS011;10858;42.714;23.180;2022-10-16T00:38:38;1.60;;;1.50;;
21394;SDS011;10858;42.714;23.180;2022-10-16T00:41:05;3.55;;;2.53;;
21394;SDS011;10858;42.714;23.180;2022-10-16T00:43:40;2.13;;;1.75;;
21394;SDS011;10858;42.714;23.180;2022-10-16T00:46:53;4.88;;;2.58;;
21394;SDS011;10858;42.714;23.180;2022-10-16T00:51:45;1.25;;;1.15;;
21394;SDS011;10858;42.714;23.180;2022-10-16T00:54:15;3.63;;;1.67;;
21394;SDS011;10858;42.714;23.180;2022-10-16T00:56:45;8.52;;;2.40;;
21394;SDS011;10858;42.714;23.180;2022-10-16T00:59:19;0.90;;;0.90;;
21394;SDS011;10858;42.714;23.180;2022-10-16T01:01:57;1.33;;;1.27;;
21394;SDS011;10858;42.714;23.180;2022-10-16T01:04:24;1.27;;;1.27;;
21394;SDS011;10858;42.714;23.180;2022-10-16T01:09:53;0.50;;;0.50;;
21394;SDS011;10858;42.714;23.180;2022-10-16T01:12:50;1.60;;;1.50;;
21394;SDS011;10858;42.714;23.180;2022-10-16T01:15:20;0.50;;;0.50;;
21394;SDS011;10858;42.714;23.180;2022-10-16T01:29:04;1.88;;;1.77;;
21394;SDS011;10858;42.714;23.180;2022-10-16T01:31:36;1.35;;;1.35;;
21394;SDS011;10858;42.714;23.180;2022-10-16T01:34:08;3.13;;;1.52;;
21394;SDS011;10858;42.714;23.180;2022-10-16T01:36:47;1.08;;;1.08;;
21394;SDS011;10858;42.714;23.180;2022-10-16T01:39:19;1.65;;;1.55;;
21394;SDS011;10858;42.714;23.180;2022-10-16T01:42:15;1.92;;;1.83;;
21394;SDS011;10858;42.714;23.180;2022-10-16T01:44:44;3.72;;;2.63;;
21394;SDS011;10858;42.714;23.180;2022-10-16T01:47:12;27.40;;;2.03;;
21394;SDS011;10858;42.714;23.180;2022-10-16T01:49:40;2.50;;;2.30;;
21394;SDS011;10858;42.714;23.180;2022-10-16T01:52:09;1.73;;;1.63;;
21394;SDS011;10858;42.714;23.180;2022-10-16T01:54:40;2.50;;;2.38;;
21394;SDS011;10858;42.714;23.180;2022-10-16T01:57:10;4.47;;;3.88;;
21394;SDS011;10858;42.714;23.180;2022-10-16T01:59:43;2.03;;;1.92;;
21394;SDS011;10858;42.714;23.180;2022-10-16T02:02:12;1.45;;;1.38;;
21394;SDS011;10858;42.714;23.180;2022-10-16T02:04:43;1.40;;;1.30;;
21394;SDS011;10858;42.714;23.180;2022-10-16T02:07:16;2.25;;;2.15;;
21394;SDS011;10858;42.714;23.180;2022-10-16T02:09:43;3.95;;;2.22;;
21394;SDS011;10858;42.714;23.180;2022-10-16T02:12:13;1.38;;;1.35;;
21394;SDS011;10858;42.714;23.180;2022-10-16T02:14:46;3.08;;;2.33;;
21394;SDS011;10858;42.714;23.180;2022-10-16T02:17:13;1.60;;;1.30;;
21394;SDS011;10858;42.714;23.180;2022-10-16T02:19:41;2.05;;;1.95;;
21394;SDS011;10858;42.714;23.180;2022-10-16T02:22:12;3.00;;;2.63;;
21394;SDS011;10858;42.714;23.180;2022-10-16T02:25:09;7.97;;;2.42;;
21394;SDS011;10858;42.714;23.180;2022-10-16T02:30:32;3.08;;;2.85;;
21394;SDS011;10858;42.714;23.180;2022-10-16T02:33:13;2.08;;;1.55;;
21394;SDS011;10858;42.714;23.180;2022-10-16T02:35:41;3.00;;;2.72;;
21394;SDS011;10858;42.714;23.180;2022-10-16T02:38:11;1.48;;;1.40;;
21394;SDS011;10858;42.714;23.180;2022-10-16T02:40:40;1.42;;;1.33;;
21394;SDS011;10858;42.714;23.180;2022-10-16T02:43:07;1.85;;;1.75;;
21394;SDS011;10858;42.714;23.180;2022-10-16T02:45:34;1.30;;;1.20;;
21394;SDS011;10858;42.714;23.180;2022-10-16T02:48:01;1.38;;;1.33;;
21394;SDS011;10858;42.714;23.180;2022-10-16T02:50:27;4.05;;;1.77;;
21394;SDS011;10858;42.714;23.180;2022-10-16T02:52:53;2.42;;;1.85;;
21394;SDS011;10858;42.714;23.180;2022-10-16T02:55:19;4.43;;;1.33;;
21394;SDS011;10858;42.714;23.180;2022-10-16T02:57:46;1.42;;;1.40;;
21394;SDS011;10858;42.714;23.180;2022-10-16T03:00:13;1.00;;;1.00;;
21394;SDS011;10858;42.714;23.180;2022-10-16T03:02:41;0.82;;;0.80;;
21394;SDS011;10858;42.714;23.180;2022-10-16T03:05:07;0.77;;;0.77;;
21394;SDS011;10858;42.714;23.180;2022-10-16T03:07:34;2.45;;;2.33;;
21394;SDS011;10858;42.714;23.180;2022-10-16T03:10:01;2.00;;;1.88;;
21394;SDS011;10858;42.714;23.180;2022-10-16T03:12:27;4.50;;;1.45;;
21394;SDS011;10858;42.714;23.180;2022-10-16T03:14:55;1.05;;;1.05;;
21394;SDS011;10858;42.714;23.180;2022-10-16T03:17:21;2.50;;;1.48;;
21394;SDS011;10858;42.714;23.180;2022-10-16T03:19:48;3.05;;;2.75;;
21394;SDS011;10858;42.714;23.180;2022-10-16T03:22:15;1.45;;;1.35;;
21394;SDS011;10858;42.714;23.180;2022-10-16T03:24:41;0.80;;;0.80;;
21394;SDS011;10858;42.714;23.180;2022-10-16T03:27:08;4.05;;;1.42;;
21394;SDS011;10858;42.714;23.180;2022-10-16T03:29:34;2.45;;;2.25;;
21394;SDS011;10858;42.714;23.180;2022-10-16T03:32:00;0.57;;;0.57;;
21394;SDS011;10858;42.714;23.180;2022-10-16T03:34:27;1.17;;;1.17;;
21394;SDS011;10858;42.714;23.180;2022-10-16T03:36:53;1.20;;;1.20;;
21394;SDS011;10858;42.714;23.180;2022-10-16T03:39:19;1.17;;;1.17;;
21394;SDS011;10858;42.714;23.180;2022-10-16T03:41:46;4.25;;;1.35;;
21394;SDS011;10858;42.714;23.180;2022-10-16T03:44:12;1.13;;;1.08;;
21394;SDS011;10858;42.714;23.180;2022-10-16T03:46:38;3.70;;;1.90;;
21394;SDS011;10858;42.714;23.180;2022-10-16T03:49:05;1.25;;;1.25;;
21394;SDS011;10858;42.714;23.180;2022-10-16T03:51:31;1.13;;;1.13;;
21394;SDS011;10858;42.714;23.180;2022-10-16T03:53:57;3.88;;;2.42;;
21394;SDS011;10858;42.714;23.180;2022-10-16T03:56:23;4.07;;;1.75;;
21394;SDS011;10858;42.714;23.180;2022-10-16T03:58:49;1.25;;;1.25;;
21394;SDS011;10858;42.714;23.180;2022-10-16T04:01:16;0.57;;;0.57;;
21394;SDS011;10858;42.714;23.180;2022-10-16T04:03:42;3.85;;;1.88;;
21394;SDS011;10858;42.714;23.180;2022-10-16T04:06:08;0.95;;;0.95;;
21394;SDS011;10858;42.714;23.180;2022-10-16T04:08:34;1.23;;;1.23;;
21394;SDS011;10858;42.714;23.180;2022-10-16T04:11:01;2.65;;;2.53;;
21394;SDS011;10858;42.714;23.180;2022-10-16T04:13:28;2.03;;;1.23;;
21394;SDS011;10858;42.714;23.180;2022-10-16T04:15:54;1.92;;;1.83;;
21394;SDS011;10858;42.714;23.180;2022-10-16T04:18:21;2.03;;;1.92;;
21394;SDS011;10858;42.714;23.180;2022-10-16T04:20:48;2.33;;;1.48;;
21394;SDS011;10858;42.714;23.180;2022-10-16T04:23:14;0.95;;;0.95;;
21394;SDS011;10858;42.714;23.180;2022-10-16T04:25:40;2.60;;;2.40;;
21394;SDS011;10858;42.714;23.180;2022-10-16T04:28:06;1.20;;;1.20;;
21394;SDS011;10858;42.714;23.180;2022-10-16T04:30:32;1.70;;;1.60;;
21394;SDS011;10858;42.714;23.180;2022-10-16T04:32:59;1.77;;;1.67;;
21394;SDS011;10858;42.714;23.180;2022-10-16T04:35:25;1.80;;;1.70;;
21394;SDS011;10858;42.714;23.180;2022-10-16T04:37:51;4.95;;;2.38;;
21394;SDS011;10858;42.714;23.180;2022-10-16T04:40:17;1.20;;;1.20;;
21394;SDS011;10858;42.714;23.180;2022-10-16T04:42:43;1.40;;;1.40;;
21394;SDS011;10858;42.714;23.180;2022-10-16T04:45:10;1.58;;;1.48;;
21394;SDS011;10858;42.714;23.180;2022-10-16T04:47:36;0.82;;;0.82;;
21394;SDS011;10858;42.714;23.180;2022-10-16T04:50:02;2.38;;;2.17;;
21394;SDS011;10858;42.714;23.180;2022-10-16T04:52:32;1.88;;;1.77;;
21394;SDS011;10858;42.714;23.180;2022-10-16T04:54:58;3.13;;;2.92;;
21394;SDS011;10858;42.714;23.180;2022-10-16T04:57:28;3.38;;;2.58;;
21394;SDS011;10858;42.714;23.180;2022-10-16T04:59:54;2.20;;;2.10;;
21394;SDS011;10858;42.714;23.180;2022-10-16T05:02:21;2.85;;;2.65;;
21394;SDS011;10858;42.714;23.180;2022-10-16T05:04:47;1.73;;;1.73;;
21394;SDS011;10858;42.714;23.180;2022-10-16T05:07:13;2.00;;;1.90;;
21394;SDS011;10858;42.714;23.180;2022-10-16T05:09:39;1.73;;;1.65;;
21394;SDS011;10858;42.714;23.180;2022-10-16T05:12:05;1.42;;;1.35;;
21394;SDS011;10858;42.714;23.180;2022-10-16T05:14:32;2.05;;;1.85;;
21394;SDS011;10858;42.714;23.180;2022-10-16T05:16:59;1.88;;;1.77;;
21394;SDS011;10858;42.714;23.180;2022-10-16T05:19:25;1.02;;;1.02;;
21394;SDS011;10858;42.714;23.180;2022-10-16T05:21:51;2.00;;;1.90;;
21394;SDS011;10858;42.714;23.180;2022-10-16T05:24:20;2.65;;;2.45;;
21394;SDS011;10858;42.714;23.180;2022-10-16T05:26:46;2.17;;;2.05;;
21394;SDS011;10858;42.714;23.180;2022-10-16T05:29:13;2.30;;;2.10;;
21394;SDS011;10858;42.714;23.180;2022-10-16T05:31:39;6.18;;;3.50;;
21394;SDS011;10858;42.714;23.180;2022-10-16T05:34:05;5.85;;;3.25;;
21394;SDS011;10858;42.714;23.180;2022-10-16T05:36:31;1.05;;;1.05;;
21394;SDS011;10858;42.714;23.180;2022-10-16T05:38:58;4.85;;;3.55;;
21394;SDS011;10858;42.714;23.180;2022-10-16T05:41:24;2.50;;;2.30;;
21394;SDS011;10858;42.714;23.180;2022-10-16T05:43:51;3.88;;;3.58;;
21394;SDS011;10858;42.714;23.180;2022-10-16T05:46:18;5.53;;;1.98;;
21394;SDS011;10858;42.714;23.180;2022-10-16T05:48:44;4.18;;;3.40;;
21394;SDS011;10858;42.714;23.180;2022-10-16T05:51:11;3.03;;;2.15;;
21394;SDS011;10858;42.714;23.180;2022-10-16T05:53:39;3.50;;;3.05;;
21394;SDS011;10858;42.714;23.180;2022-10-16T05:56:06;2.70;;;2.50;;
21394;SDS011;10858;42.714;23.180;2022-10-16T05:58:36;6.50;;;3.30;;
21394;SDS011;10858;42.714;23.180;2022-10-16T06:01:15;2.47;;;1.35;;
21394;SDS011;10858;42.714;23.180;2022-10-16T06:03:50;0.95;;;0.95;;
21394;SDS011;10858;42.714;23.180;2022-10-16T06:06:18;1.95;;;1.85;;
21394;SDS011;10858;42.714;23.180;2022-10-16T06:08:46;2.00;;;1.90;;
21394;SDS011;10858;42.714;23.180;2022-10-16T06:11:14;3.97;;;3.25;;
21394;SDS011;10858;42.714;23.180;2022-10-16T06:13:42;3.22;;;2.13;;
21394;SDS011;10858;42.714;23.180;2022-10-16T06:16:10;5.22;;;2.08;;
21394;SDS011;10858;42.714;23.180;2022-10-16T06:18:37;2.45;;;2.25;;
21394;SDS011;10858;42.714;23.180;2022-10-16T06:21:08;2.70;;;2.50;;
21394;SDS011;10858;42.714;23.180;2022-10-16T06:23:45;2.53;;;1.73;;
21394;SDS011;10858;42.714;23.180;2022-10-16T06:26:13;1.95;;;1.83;;
21394;SDS011;10858;42.714;23.180;2022-10-16T06:28:41;3.97;;;2.15;;
21394;SDS011;10858;42.714;23.180;2022-10-16T06:31:08;2.20;;;1.27;;
21394;SDS011;10858;42.714;23.180;2022-10-16T06:33:36;2.35;;;2.25;;
21394;SDS011;10858;42.714;23.180;2022-10-16T06:36:13;2.70;;;2.50;;
21394;SDS011;10858;42.714;23.180;2022-10-16T06:38:40;1.10;;;1.02;;
21394;SDS011;10858;42.714;23.180;2022-10-16T06:41:09;7.07;;;2.83;;
21394;SDS011;10858;42.714;23.180;2022-10-16T06:43:39;0.88;;;0.88;;
21394;SDS011;10858;42.714;23.180;2022-10-16T06:46:06;2.72;;;1.85;;
21394;SDS011;10858;42.714;23.180;2022-10-16T06:48:35;1.73;;;1.63;;
21394;SDS011;10858;42.714;23.180;2022-10-16T06:53:37;3.53;;;2.53;;
21394;SDS011;10858;42.714;23.180;2022-10-16T06:56:09;2.10;;;1.48;;
21394;SDS011;10858;42.714;23.180;2022-10-16T06:58:37;2.53;;;2.03;;
21394;SDS011;10858;42.714;23.180;2022-10-16T07:01:04;3.50;;;2.67;;
21394;SDS011;10858;42.714;23.180;2022-10-16T07:03:31;2.45;;;2.17;;
21394;SDS011;10858;42.714;23.180;2022-10-16T07:06:00;3.88;;;2.60;;
21394;SDS011;10858;42.714;23.180;2022-10-16T07:08:30;1.05;;;1.05;;
21394;SDS011;10858;42.714;23.180;2022-10-16T07:11:01;1.55;;;1.15;;
21394;SDS011;10858;42.714;23.180;2022-10-16T07:13:29;2.90;;;2.20;;
21394;SDS011;10858;42.714;23.180;2022-10-16T07:15:58;4.68;;;1.67;;
21394;SDS011;10858;42.714;23.180;2022-10-16T07:18:30;2.58;;;2.38;;
21394;SDS011;10858;42.714;23.180;2022-10-16T07:21:07;3.05;;;2.22;;
21394;SDS011;10858;42.714;23.180;2022-10-16T07:23:35;6.30;;;2.92;;
21394;SDS011;10858;42.714;23.180;2022-10-16T07:26:01;1.45;;;1.23;;
21394;SDS011;10858;42.714;23.180;2022-10-16T07:28:28;3.05;;;2.45;;
21394;SDS011;10858;42.714;23.180;2022-10-16T07:30:59;2.50;;;1.70;;
21394;SDS011;10858;42.714;23.180;2022-10-16T07:33:30;3.20;;;1.58;;
21394;SDS011;10858;42.714;23.180;2022-10-16T07:35:57;3.92;;;2.63;;
21394;SDS011;10858;42.714;23.180;2022-10-16T07:38:23;2.65;;;2.13;;
21394;SDS011;10858;42.714;23.180;2022-10-16T07:41:00;2.78;;;2.33;;
21394;SDS011;10858;42.714;23.180;2022-10-16T07:43:28;2.35;;;2.25;;
21394;SDS011;10858;42.714;23.180;2022-10-16T07:45:55;1.83;;;1.70;;
21394;SDS011;10858;42.714;23.180;2022-10-16T07:48:21;3.38;;;2.28;;
21394;SDS011;10858;42.714;23.180;2022-10-16T07:50:49;2.50;;;2.30;;
21394;SDS011;10858;42.714;23.180;2022-10-16T07:53:15;2.33;;;2.10;;
21394;SDS011;10858;42.714;23.180;2022-10-16T07:55:41;1.90;;;1.77;;
21394;SDS011;10858;42.714;23.180;2022-10-16T07:58:08;2.22;;;2.03;;
21394;SDS011;10858;42.714;23.180;2022-10-16T08:00:35;2.83;;;2.63;;
21394;SDS011;10858;42.714;23.180;2022-10-16T08:03:02;2.38;;;1.25;;
21394;SDS011;10858;42.714;23.180;2022-10-16T08:05:29;1.85;;;1.75;;
21394;SDS011;10858;42.714;23.180;2022-10-16T08:07:57;4.57;;;1.70;;
21394;SDS011;10858;42.714;23.180;2022-10-16T08:10:24;2.65;;;2.45;;
21394;SDS011;10858;42.714;23.180;2022-10-16T08:12:51;7.00;;;3.22;;
21394;SDS011;10858;42.714;23.180;2022-10-16T08:15:17;2.28;;;1.60;;
21394;SDS011;10858;42.714;23.180;2022-10-16T08:17:44;5.22;;;2.55;;
21394;SDS011;10858;42.714;23.180;2022-10-16T08:20:19;1.58;;;1.25;;
21394;SDS011;10858;42.714;23.180;2022-10-16T08:22:45;2.55;;;2.25;;
21394;SDS011;10858;42.714;23.180;2022-10-16T08:25:11;2.15;;;1.63;;
21394;SDS011;10858;42.714;23.180;2022-10-16T08:27:37;3.03;;;2.35;;
21394;SDS011;10858;42.714;23.180;2022-10-16T08:30:03;3.97;;;1.65;;
21394;SDS011;10858;42.714;23.180;2022-10-16T08:32:30;4.85;;;2.13;;
21394;SDS011;10858;42.714;23.180;2022-10-16T08:34:56;1.85;;;1.35;;
21394;SDS011;10858;42.714;23.180;2022-10-16T08:37:23;2.92;;;1.88;;
21394;SDS011;10858;42.714;23.180;2022-10-16T08:39:49;3.88;;;2.20;;
21394;SDS011;10858;42.714;23.180;2022-10-16T08:44:59;6.25;;;2.33;;
21394;SDS011;10858;42.714;23.180;2022-10-16T08:50:36;1.15;;;1.15;;
21394;SDS011;10858;42.714;23.180;2022-10-16T08:53:04;2.00;;;1.33;;
21394;SDS011;10858;42.714;23.180;2022-10-16T08:55:38;2.00;;;1.52;;
21394;SDS011;10858;42.714;23.180;2022-10-16T08:58:12;1.50;;;1.40;;
21394;SDS011;10858;42.714;23.180;2022-10-16T09:00:40;0.60;;;0.60;;
21394;SDS011;10858;42.714;23.180;2022-10-16T09:05:50;2.47;;;1.13;;
21394;SDS011;10858;42.714;23.180;2022-10-16T09:16:36;0.47;;;0.47;;
21394;SDS011;10858;42.714;23.180;2022-10-16T09:21:41;0.90;;;0.70;;
21394;SDS011;10858;42.714;23.180;2022-10-16T09:24:20;0.90;;;0.68;;
21394;SDS011;10858;42.714;23.180;2022-10-16T09:26:49;0.57;;;0.57;;
21394;SDS011;10858;42.714;23.180;2022-10-16T09:29:16;1.45;;;1.33;;
21394;SDS011;10858;42.714;23.180;2022-10-16T09:31:46;0.47;;;0.47;;
21394;SDS011;10858;42.714;23.180;2022-10-16T09:34:35;0.80;;;0.77;;
21394;SDS011;10858;42.714;23.180;2022-10-16T09:37:03;1.33;;;1.17;;
21394;SDS011;10858;42.714;23.180;2022-10-16T09:39:47;2.88;;;1.50;;
21394;SDS011;10858;42.714;23.180;2022-10-16T09:42:24;1.63;;;1.15;;
21394;SDS011;10858;42.714;23.180;2022-10-16T09:44:52;1.88;;;1.25;;
21394;SDS011;10858;42.714;23.180;2022-10-16T09:47:29;2.72;;;1.25;;
21394;SDS011;10858;42.714;23.180;2022-10-16T09:52:26;1.95;;;1.05;;
21394;SDS011;10858;42.714;23.180;2022-10-16T09:54:57;0.55;;;0.55;;
21394;SDS011;10858;42.714;23.180;2022-10-16T09:57:25;0.88;;;0.68;;
21394;SDS011;10858;42.714;23.180;2022-10-16T09:59:53;0.50;;;0.50;;
21394;SDS011;10858;42.714;23.180;2022-10-16T10:02:34;0.50;;;0.50;;
21394;SDS011;10858;42.714;23.180;2022-10-16T10:05:03;1.40;;;1.30;;
21394;SDS011;10858;42.714;23.180;2022-10-16T10:07:39;0.43;;;0.43;;
21394;SDS011;10858;42.714;23.180;2022-10-16T10:10:19;1.27;;;0.98;;
21394;SDS011;10858;42.714;23.180;2022-10-16T10:12:57;0.80;;;0.55;;
21394;SDS011;10858;42.714;23.180;2022-10-16T10:15:24;1.33;;;1.23;;
21394;SDS011;10858;42.714;23.180;2022-10-16T10:17:55;2.63;;;1.55;;
21394;SDS011;10858;42.714;23.180;2022-10-16T10:22:52;1.02;;;0.93;;
21394;SDS011;10858;42.714;23.180;2022-10-16T10:34:02;1.13;;;0.47;;
21394;SDS011;10858;42.714;23.180;2022-10-16T10:36:39;0.40;;;0.40;;
21394;SDS011;10858;42.714;23.180;2022-10-16T10:44:30;1.65;;;1.33;;
21394;SDS011;10858;42.714;23.180;2022-10-16T10:52:59;1.85;;;1.05;;
21394;SDS011;10858;42.714;23.180;2022-10-16T11:03:27;0.73;;;0.60;;
21394;SDS011;10858;42.714;23.180;2022-10-16T11:06:24;1.63;;;1.38;;
21394;SDS011;10858;42.714;23.180;2022-10-16T11:11:40;2.10;;;1.60;;
21394;SDS011;10858;42.714;23.180;2022-10-16T11:14:36;0.90;;;0.88;;
21394;SDS011;10858;42.714;23.180;2022-10-16T11:17:39;1.17;;;0.85;;
21394;SDS011;10858;42.714;23.180;2022-10-16T11:23:11;1.02;;;0.70;;
21394;SDS011;10858;42.714;23.180;2022-10-16T11:25:43;0.75;;;0.52;;
21394;SDS011;10858;42.714;23.180;2022-10-16T11:28:18;0.47;;;0.47;;
21394;SDS011;10858;42.714;23.180;2022-10-16T11:39:41;0.52;;;0.52;;
21394;SDS011;10858;42.714;23.180;2022-10-16T11:44:59;1.08;;;0.98;;
21394;SDS011;10858;42.714;23.180;2022-10-16T11:47:51;0.52;;;0.52;;
21394;SDS011;10858;42.714;23.180;2022-10-16T11:56:03;0.32;;;0.32;;
21394;SDS011;10858;42.714;23.180;2022-10-16T12:01:29;0.55;;;0.55;;
21394;SDS011;10858;42.714;23.180;2022-10-16T12:07:23;1.25;;;0.95;;
21394;SDS011;10858;42.714;23.180;2022-10-16T12:09:57;0.40;;;0.40;;
21394;SDS011;10858;42.714;23.180;2022-10-16T12:15:01;0.63;;;0.52;;
21394;SDS011;10858;42.714;23.180;2022-10-16T12:17:43;2.50;;;0.55;;
21394;SDS011;10858;42.714;23.180;2022-10-16T12:22:49;0.55;;;0.55;;
21394;SDS011;10858;42.714;23.180;2022-10-16T12:25:40;0.17;;;0.17;;
21394;SDS011;10858;42.714;23.180;2022-10-16T12:30:40;0.65;;;0.52;;
21394;SDS011;10858;42.714;23.180;2022-10-16T12:33:22;0.25;;;0.25;;
21394;SDS011;10858;42.714;23.180;2022-10-16T12:35:54;2.60;;;0.55;;
21394;SDS011;10858;42.714;23.180;2022-10-16T12:38:26;0.75;;;0.65;;
21394;SDS011;10858;42.714;23.180;2022-10-16T12:41:10;0.75;;;0.65;;
21394;SDS011;10858;42.714;23.180;2022-10-16T12:48:35;1.73;;;0.55;;
21394;SDS011;10858;42.714;23.180;2022-10-16T12:53:58;5.15;;;1.75;;
21394;SDS011;10858;42.714;23.180;2022-10-16T12:56:33;2.30;;;1.20;;
21394;SDS011;10858;42.714;23.180;2022-10-16T12:59:21;0.65;;;0.43;;
21394;SDS011;10858;42.714;23.180;2022-10-16T13:16:58;0.40;;;0.30;;
21394;SDS011;10858;42.714;23.180;2022-10-16T13:21:50;0.13;;;0.13;;
21394;SDS011;10858;42.714;23.180;2022-10-16T13:29:34;0.75;;;0.57;;
21394;SDS011;10858;42.714;23.180;2022-10-16T13:32:07;0.20;;;0.20;;
21394;SDS011;10858;42.714;23.180;2022-10-16T13:34:55;0.52;;;0.52;;
21394;SDS011;10858;42.714;23.180;2022-10-16T13:37:24;0.17;;;0.17;;
21394;SDS011;10858;42.714;23.180;2022-10-16T13:40:18;0.10;;;0.10;;
21394;SDS011;10858;42.714;23.180;2022-10-16T13:42:47;0.43;;;0.38;;
21394;SDS011;10858;42.714;23.180;2022-10-16T13:45:18;0.22;;;0.20;;
21394;SDS011;10858;42.714;23.180;2022-10-16T13:47:46;2.53;;;1.20;;
21394;SDS011;10858;42.714;23.180;2022-10-16T13:50:13;0.08;;;0.08;;
21394;SDS011;10858;42.714;23.180;2022-10-16T13:52:42;0.10;;;0.10;;
21394;SDS011;10858;42.714;23.180;2022-10-16T13:57:45;0.55;;;0.55;;
21394;SDS011;10858;42.714;23.180;2022-10-16T14:00:21;0.60;;;0.45;;
21394;SDS011;10858;42.714;23.180;2022-10-16T14:02:50;1.75;;;0.85;;
21394;SDS011;10858;42.714;23.180;2022-10-16T14:05:22;0.93;;;0.70;;
21394;SDS011;10858;42.714;23.180;2022-10-16T14:07:49;0.10;;;0.10;;
21394;SDS011;10858;42.714;23.180;2022-10-16T14:10:23;0.43;;;0.43;;
21394;SDS011;10858;42.714;23.180;2022-10-16T14:13:02;0.85;;;0.50;;
21394;SDS011;10858;42.714;23.180;2022-10-16T14:15:31;0.10;;;0.10;;
21394;SDS011;10858;42.714;23.180;2022-10-16T14:17:59;0.30;;;0.30;;
21394;SDS011;10858;42.714;23.180;2022-10-16T14:20:26;0.40;;;0.40;;
21394;SDS011;10858;42.714;23.180;2022-10-16T14:23:02;0.60;;;0.40;;
21394;SDS011;10858;42.714;23.180;2022-10-16T14:25:44;1.58;;;0.80;;
21394;SDS011;10858;42.714;23.180;2022-10-16T14:28:18;0.73;;;0.43;;
21394;SDS011;10858;42.714;23.180;2022-10-16T14:30:58;0.82;;;0.40;;
21394;SDS011;10858;42.714;23.180;2022-10-16T14:36:02;1.80;;;0.60;;
21394;SDS011;10858;42.714;23.180;2022-10-16T14:38:39;0.50;;;0.50;;
21394;SDS011;10858;42.714;23.180;2022-10-16T14:41:07;0.93;;;0.60;;
21394;SDS011;10858;42.714;23.180;2022-10-16T14:43:38;2.28;;;1.08;;
21394;SDS011;10858;42.714;23.180;2022-10-16T14:46:08;0.50;;;0.50;;
21394;SDS011;10858;42.714;23.180;2022-10-16T14:48:59;1.25;;;0.75;;
21394;SDS011;10858;42.714;23.180;2022-10-16T14:51:36;0.45;;;0.45;;
21394;SDS011;10858;42.714;23.180;2022-10-16T14:54:03;0.32;;;0.32;;
21394;SDS011;10858;42.714;23.180;2022-10-16T14:56:31;0.40;;;0.40;;
21394;SDS011;10858;42.714;23.180;2022-10-16T15:01:45;1.63;;;1.02;;
21394;SDS011;10858;42.714;23.180;2022-10-16T15:04:12;1.20;;;1.10;;
21394;SDS011;10858;42.714;23.180;2022-10-16T15:06:40;0.35;;;0.35;;
21394;SDS011;10858;42.714;23.180;2022-10-16T15:09:14;0.40;;;0.40;;
21394;SDS011;10858;42.714;23.180;2022-10-16T15:11:41;0.50;;;0.40;;
21394;SDS011;10858;42.714;23.180;2022-10-16T15:14:11;1.40;;;0.70;;
21394;SDS011;10858;42.714;23.180;2022-10-16T15:16:38;0.55;;;0.55;;
21394;SDS011;10858;42.714;23.180;2022-10-16T15:19:08;1.42;;;1.17;;
21394;SDS011;10858;42.714;23.180;2022-10-16T15:21:34;0.38;;;0.38;;
21394;SDS011;10858;42.714;23.180;2022-10-16T15:24:04;0.68;;;0.68;;
21394;SDS011;10858;42.714;23.180;2022-10-16T15:26:36;0.40;;;0.40;;
21394;SDS011;10858;42.714;23.180;2022-10-16T15:29:03;0.98;;;0.93;;
21394;SDS011;10858;42.714;23.180;2022-10-16T15:31:29;0.85;;;0.82;;
21394;SDS011;10858;42.714;23.180;2022-10-16T15:33:56;0.40;;;0.40;;
21394;SDS011;10858;42.714;23.180;2022-10-16T15:36:30;0.20;;;0.20;;
21394;SDS011;10858;42.714;23.180;2022-10-16T15:39:12;0.60;;;0.60;;
21394;SDS011;10858;42.714;23.180;2022-10-16T15:41:44;0.55;;;0.55;;
21394;SDS011;10858;42.714;23.180;2022-10-16T15:44:18;0.57;;;0.52;;
21394;SDS011;10858;42.714;23.180;2022-10-16T15:46:45;3.50;;;0.90;;
21394;SDS011;10858;42.714;23.180;2022-10-16T15:49:12;1.42;;;1.30;;
21394;SDS011;10858;42.714;23.180;2022-10-16T15:51:39;0.63;;;0.57;;
21394;SDS011;10858;42.714;23.180;2022-10-16T15:54:06;1.02;;;0.90;;
21394;SDS011;10858;42.714;23.180;2022-10-16T15:56:33;0.65;;;0.65;;
21394;SDS011;10858;42.714;23.180;2022-10-16T15:59:02;0.80;;;0.73;;
21394;SDS011;10858;42.714;23.180;2022-10-16T16:01:34;2.55;;;1.45;;
21394;SDS011;10858;42.714;23.180;2022-10-16T16:04:01;0.88;;;0.70;;
21394;SDS011;10858;42.714;23.180;2022-10-16T16:06:29;0.45;;;0.45;;
21394;SDS011;10858;42.714;23.180;2022-10-16T16:08:55;1.40;;;1.23;;
21394;SDS011;10858;42.714;23.180;2022-10-16T16:11:23;1.63;;;1.27;;
21394;SDS011;10858;42.714;23.180;2022-10-16T16:13:52;1.23;;;0.73;;
21394;SDS011;10858;42.714;23.180;2022-10-16T16:16:20;0.90;;;0.90;;
21394;SDS011;10858;42.714;23.180;2022-10-16T16:18:46;0.40;;;0.40;;
21394;SDS011;10858;42.714;23.180;2022-10-16T16:21:14;0.68;;;0.68;;
21394;SDS011;10858;42.714;23.180;2022-10-16T16:23:40;1.35;;;1.27;;
21394;SDS011;10858;42.714;23.180;2022-10-16T16:26:07;2.45;;;1.27;;
21394;SDS011;10858;42.714;23.180;2022-10-16T16:28:51;0.40;;;0.40;;
21394;SDS011;10858;42.714;23.180;2022-10-16T16:31:18;1.38;;;1.27;;
21394;SDS011;10858;42.714;23.180;2022-10-16T16:33:46;2.85;;;1.10;;
21394;SDS011;10858;42.714;23.180;2022-10-16T16:36:12;0.52;;;0.52;;
21394;SDS011;10858;42.714;23.180;2022-10-16T16:38:38;1.35;;;0.68;;
21394;SDS011;10858;42.714;23.180;2022-10-16T16:41:15;1.80;;;1.25;;
21394;SDS011;10858;42.714;23.180;2022-10-16T16:43:43;0.47;;;0.47;;
21394;SDS011;10858;42.714;23.180;2022-10-16T16:46:10;1.10;;;1.08;;
21394;SDS011;10858;42.714;23.180;2022-10-16T16:48:37;1.55;;;1.15;;
21394;SDS011;10858;42.714;23.180;2022-10-16T16:51:07;1.77;;;1.13;;
21394;SDS011;10858;42.714;23.180;2022-10-16T16:53:41;2.05;;;1.88;;
21394;SDS011;10858;42.714;23.180;2022-10-16T16:56:08;1.30;;;1.20;;
21394;SDS011;10858;42.714;23.180;2022-10-16T16:58:34;4.45;;;2.63;;
21394;SDS011;10858;42.714;23.180;2022-10-16T17:01:01;4.13;;;3.25;;
21394;SDS011;10858;42.714;23.180;2022-10-16T17:03:28;0.85;;;0.85;;
21394;SDS011;10858;42.714;23.180;2022-10-16T17:06:00;1.50;;;1.40;;
21394;SDS011;10858;42.714;23.180;2022-10-16T17:08:31;1.77;;;1.20;;
21394;SDS011;10858;42.714;23.180;2022-10-16T17:10:58;0.80;;;0.80;;
21394;SDS011;10858;42.714;23.180;2022-10-16T17:13:25;2.65;;;2.00;;
21394;SDS011;10858;42.714;23.180;2022-10-16T17:15:53;2.00;;;1.27;;
21394;SDS011;10858;42.714;23.180;2022-10-16T17:18:20;3.13;;;2.40;;
21394;SDS011;10858;42.714;23.180;2022-10-16T17:20:47;2.88;;;1.70;;